Huvudsida
METAR-TAF:

METAR-TAF

Flygplatser :

Stockholm-Bromma flygplats

Stockholm, Sverige

latitud: 59-21N, longitud: 017-57E, höjd: 14 m

Aktuellt väderrapport

Denna rapport gjordes för 28 minuter sedan, klockan 03:50 UTC
Vind 13 kt från väst/sydväst
Temperatur 5°C
Fuktighet 70%
Tryck 996 hPa
Sikt 10 km eller mer

METAR: ESSB 190350Z AUTO 24013KT 9999 BKN029/// 05/M00 Q0996

Tid: 05:18 (04:18 UTC)

Väderprognos

Denna rapport gjordes för 48 minuter sedan, klockan 03:30 UTC
Prognos gäller från 19 kl. 04 UTC till 19 kl. 12 UTC
Vind 12 kt från väst/sydväst
Sikt 10 km eller mer
Brutna moln på en höjd av 3000 ft

TAF: ESSB 190330Z 1904/1912 24012KT 9999 BKN030

Aktuella väderrapporter och prognoser från 4000 flygplatser (METAR- och TAF-rapporter).

De tillgängliga stationerna syns som gula och röda prickar på kartan.

För musen över prickarna för att se namnen på stationerna.

Klicka sedan för att få väderrapporter och prognoser.

För att ändra kartan: Klicka på de gröna knapparna med ett svart kors på för att zooma in; den gröna knappen med ett streck på för att zooma ut; eller på de gröna pilarna för angränsande kartor.


METAR-TAF: